sensor_id;sensor_type;location;lat;lon;timestamp;temperature;humidity
78028;DHT22;67235;45.638;11.714;2023-09-19T00:01:13;21.20;82.80
78028;DHT22;67235;45.638;11.714;2023-09-19T00:03:39;21.20;82.60
78028;DHT22;67235;45.638;11.714;2023-09-19T00:06:08;21.10;82.40
78028;DHT22;67235;45.638;11.714;2023-09-19T00:08:36;21.10;82.20
78028;DHT22;67235;45.638;11.714;2023-09-19T00:11:02;21.00;82.80
78028;DHT22;67235;45.638;11.714;2023-09-19T00:13:29;21.00;83.30
78028;DHT22;67235;45.638;11.714;2023-09-19T00:15:56;21.00;83.50
78028;DHT22;67235;45.638;11.714;2023-09-19T00:18:24;21.00;83.20
78028;DHT22;67235;45.638;11.714;2023-09-19T00:21:01;21.00;82.70
78028;DHT22;67235;45.638;11.714;2023-09-19T00:23:27;20.90;82.90
78028;DHT22;67235;45.638;11.714;2023-09-19T00:25:53;21.00;82.90
78028;DHT22;67235;45.638;11.714;2023-09-19T00:28:23;21.00;83.20
78028;DHT22;67235;45.638;11.714;2023-09-19T00:30:49;21.00;83.80
78028;DHT22;67235;45.638;11.714;2023-09-19T00:33:16;21.10;83.50
78028;DHT22;67235;45.638;11.714;2023-09-19T00:35:49;21.10;83.30
78028;DHT22;67235;45.638;11.714;2023-09-19T00:38:17;21.10;82.80
78028;DHT22;67235;45.638;11.714;2023-09-19T00:40:54;21.20;82.90
78028;DHT22;67235;45.638;11.714;2023-09-19T00:43:25;21.10;83.30
78028;DHT22;67235;45.638;11.714;2023-09-19T00:45:53;21.10;83.30
78028;DHT22;67235;45.638;11.714;2023-09-19T00:48:21;21.10;83.30
78028;DHT22;67235;45.638;11.714;2023-09-19T00:50:48;21.10;83.20
78028;DHT22;67235;45.638;11.714;2023-09-19T00:53:20;21.00;83.50
78028;DHT22;67235;45.638;11.714;2023-09-19T00:55:49;21.00;83.50
78028;DHT22;67235;45.638;11.714;2023-09-19T00:58:18;20.90;83.10
78028;DHT22;67235;45.638;11.714;2023-09-19T01:00:45;20.90;84.20
78028;DHT22;67235;45.638;11.714;2023-09-19T01:03:13;20.80;84.30
78028;DHT22;67235;45.638;11.714;2023-09-19T01:05:43;20.80;84.30
78028;DHT22;67235;45.638;11.714;2023-09-19T01:08:10;20.80;84.50
78028;DHT22;67235;45.638;11.714;2023-09-19T01:10:55;20.70;83.50
78028;DHT22;67235;45.638;11.714;2023-09-19T01:13:35;20.60;83.90
78028;DHT22;67235;45.638;11.714;2023-09-19T01:21:39;20.60;84.40
78028;DHT22;67235;45.638;11.714;2023-09-19T01:30:20;20.50;83.70
78028;DHT22;67235;45.638;11.714;2023-09-19T01:32:51;20.50;84.00
78028;DHT22;67235;45.638;11.714;2023-09-19T01:35:18;20.40;84.10
78028;DHT22;67235;45.638;11.714;2023-09-19T01:37:45;20.50;84.20
78028;DHT22;67235;45.638;11.714;2023-09-19T01:40:13;20.50;83.60
78028;DHT22;67235;45.638;11.714;2023-09-19T01:48:41;20.40;84.10
78028;DHT22;67235;45.638;11.714;2023-09-19T01:51:18;20.40;83.80
78028;DHT22;67235;45.638;11.714;2023-09-19T01:54:09;20.30;83.40
78028;DHT22;67235;45.638;11.714;2023-09-19T01:59:50;20.20;84.40
78028;DHT22;67235;45.638;11.714;2023-09-19T02:02:20;20.20;84.50
78028;DHT22;67235;45.638;11.714;2023-09-19T02:04:48;20.20;84.50
78028;DHT22;67235;45.638;11.714;2023-09-19T02:07:15;20.20;83.80
78028;DHT22;67235;45.638;11.714;2023-09-19T02:09:41;20.20;83.90
78028;DHT22;67235;45.638;11.714;2023-09-19T02:12:09;20.20;83.60
78028;DHT22;67235;45.638;11.714;2023-09-19T02:14:35;20.10;84.20
78028;DHT22;67235;45.638;11.714;2023-09-19T02:17:02;20.10;83.40
78028;DHT22;67235;45.638;11.714;2023-09-19T02:19:33;20.00;84.30
78028;DHT22;67235;45.638;11.714;2023-09-19T02:22:00;20.10;84.40
78028;DHT22;67235;45.638;11.714;2023-09-19T02:24:28;20.10;84.40
78028;DHT22;67235;45.638;11.714;2023-09-19T02:26:54;20.10;84.10
78028;DHT22;67235;45.638;11.714;2023-09-19T02:29:21;20.10;83.80
78028;DHT22;67235;45.638;11.714;2023-09-19T02:31:48;20.00;83.50
78028;DHT22;67235;45.638;11.714;2023-09-19T02:34:13;20.00;83.30
78028;DHT22;67235;45.638;11.714;2023-09-19T02:36:42;19.90;83.20
78028;DHT22;67235;45.638;11.714;2023-09-19T02:39:10;20.00;83.40
78028;DHT22;67235;45.638;11.714;2023-09-19T02:41:36;20.00;83.40
78028;DHT22;67235;45.638;11.714;2023-09-19T02:44:02;19.90;83.50
78028;DHT22;67235;45.638;11.714;2023-09-19T02:46:32;19.90;83.70
78028;DHT22;67235;45.638;11.714;2023-09-19T02:48:58;19.90;83.50
78028;DHT22;67235;45.638;11.714;2023-09-19T02:51:24;19.90;83.00
78028;DHT22;67235;45.638;11.714;2023-09-19T02:53:50;19.80;83.80
78028;DHT22;67235;45.638;11.714;2023-09-19T02:56:20;19.80;83.80
78028;DHT22;67235;45.638;11.714;2023-09-19T02:58:46;19.80;83.30
78028;DHT22;67235;45.638;11.714;2023-09-19T03:01:11;19.70;83.30
78028;DHT22;67235;45.638;11.714;2023-09-19T03:03:38;19.80;83.40
78028;DHT22;67235;45.638;11.714;2023-09-19T03:06:08;19.80;83.40
78028;DHT22;67235;45.638;11.714;2023-09-19T03:08:35;19.70;83.80
78028;DHT22;67235;45.638;11.714;2023-09-19T03:11:08;19.70;83.30
78028;DHT22;67235;45.638;11.714;2023-09-19T03:13:36;19.60;83.70
78028;DHT22;67235;45.638;11.714;2023-09-19T03:16:04;19.70;83.40
78028;DHT22;67235;45.638;11.714;2023-09-19T03:18:34;19.60;83.00
78028;DHT22;67235;45.638;11.714;2023-09-19T03:21:01;19.60;83.40
78028;DHT22;67235;45.638;11.714;2023-09-19T03:23:27;19.60;83.80
78028;DHT22;67235;45.638;11.714;2023-09-19T03:25:53;19.60;83.90
78028;DHT22;67235;45.638;11.714;2023-09-19T03:28:20;19.60;84.30
78028;DHT22;67235;45.638;11.714;2023-09-19T03:30:57;19.60;84.70
78028;DHT22;67235;45.638;11.714;2023-09-19T03:33:23;19.60;84.10
78028;DHT22;67235;45.638;11.714;2023-09-19T03:35:53;19.70;84.00
78028;DHT22;67235;45.638;11.714;2023-09-19T03:38:19;19.60;83.80
78028;DHT22;67235;45.638;11.714;2023-09-19T03:40:45;19.60;83.90
78028;DHT22;67235;45.638;11.714;2023-09-19T03:43:11;19.60;83.80
78028;DHT22;67235;45.638;11.714;2023-09-19T03:45:37;19.50;83.70
78028;DHT22;67235;45.638;11.714;2023-09-19T03:48:10;19.50;83.80
78028;DHT22;67235;45.638;11.714;2023-09-19T03:50:37;19.50;83.40
78028;DHT22;67235;45.638;11.714;2023-09-19T03:53:03;19.40;83.10
78028;DHT22;67235;45.638;11.714;2023-09-19T03:55:29;19.30;83.30
78028;DHT22;67235;45.638;11.714;2023-09-19T03:57:58;19.40;83.40
78028;DHT22;67235;45.638;11.714;2023-09-19T04:00:24;19.30;83.40
78028;DHT22;67235;45.638;11.714;2023-09-19T04:02:52;19.30;83.30
78028;DHT22;67235;45.638;11.714;2023-09-19T04:05:18;19.30;83.60
78028;DHT22;67235;45.638;11.714;2023-09-19T04:07:44;19.30;83.60
78028;DHT22;67235;45.638;11.714;2023-09-19T04:10:10;19.30;83.40
78028;DHT22;67235;45.638;11.714;2023-09-19T04:12:40;19.20;83.30
78028;DHT22;67235;45.638;11.714;2023-09-19T04:15:06;19.20;83.10
78028;DHT22;67235;45.638;11.714;2023-09-19T04:17:33;19.10;83.10
78028;DHT22;67235;45.638;11.714;2023-09-19T04:19:59;19.20;83.40
78028;DHT22;67235;45.638;11.714;2023-09-19T04:22:25;19.10;83.60
78028;DHT22;67235;45.638;11.714;2023-09-19T04:24:51;19.10;83.50
78028;DHT22;67235;45.638;11.714;2023-09-19T04:27:17;19.10;83.30
78028;DHT22;67235;45.638;11.714;2023-09-19T04:29:44;19.10;83.40
78028;DHT22;67235;45.638;11.714;2023-09-19T04:32:12;19.00;83.30
78028;DHT22;67235;45.638;11.714;2023-09-19T04:34:39;19.00;83.30
78028;DHT22;67235;45.638;11.714;2023-09-19T04:37:05;19.00;83.40
78028;DHT22;67235;45.638;11.714;2023-09-19T04:39:31;19.00;83.30
78028;DHT22;67235;45.638;11.714;2023-09-19T04:41:56;19.00;83.20
78028;DHT22;67235;45.638;11.714;2023-09-19T04:44:23;19.10;83.20
78028;DHT22;67235;45.638;11.714;2023-09-19T04:46:49;19.10;83.20
78028;DHT22;67235;45.638;11.714;2023-09-19T04:49:15;19.00;83.20
78028;DHT22;67235;45.638;11.714;2023-09-19T04:51:41;19.10;83.10
78028;DHT22;67235;45.638;11.714;2023-09-19T04:54:08;19.00;82.70
78028;DHT22;67235;45.638;11.714;2023-09-19T04:56:33;19.00;82.80
78028;DHT22;67235;45.638;11.714;2023-09-19T04:59:00;18.90;83.20
78028;DHT22;67235;45.638;11.714;2023-09-19T05:01:26;19.10;83.00
78028;DHT22;67235;45.638;11.714;2023-09-19T05:03:52;19.00;83.20
78028;DHT22;67235;45.638;11.714;2023-09-19T05:06:21;19.00;83.10
78028;DHT22;67235;45.638;11.714;2023-09-19T05:08:51;18.90;83.30
78028;DHT22;67235;45.638;11.714;2023-09-19T05:11:18;18.90;83.60
78028;DHT22;67235;45.638;11.714;2023-09-19T05:13:44;19.00;83.50
78028;DHT22;67235;45.638;11.714;2023-09-19T05:16:10;18.90;83.30
78028;DHT22;67235;45.638;11.714;2023-09-19T05:18:36;18.90;83.60
78028;DHT22;67235;45.638;11.714;2023-09-19T05:21:02;19.10;83.00
78028;DHT22;67235;45.638;11.714;2023-09-19T05:23:29;19.40;82.00
78028;DHT22;67235;45.638;11.714;2023-09-19T05:25:55;20.10;79.80
78028;DHT22;67235;45.638;11.714;2023-09-19T05:28:23;20.80;78.20
78028;DHT22;67235;45.638;11.714;2023-09-19T05:30:49;21.50;75.80
78028;DHT22;67235;45.638;11.714;2023-09-19T05:33:16;21.80;75.20
78028;DHT22;67235;45.638;11.714;2023-09-19T05:35:45;21.80;75.10
78028;DHT22;67235;45.638;11.714;2023-09-19T05:38:13;22.00;75.10
78028;DHT22;67235;45.638;11.714;2023-09-19T05:40:45;22.10;75.20
78028;DHT22;67235;45.638;11.714;2023-09-19T05:43:12;21.90;75.40
78028;DHT22;67235;45.638;11.714;2023-09-19T05:45:42;21.90;75.70
78028;DHT22;67235;45.638;11.714;2023-09-19T05:48:12;21.90;76.10
78028;DHT22;67235;45.638;11.714;2023-09-19T05:50:42;21.80;76.50
78028;DHT22;67235;45.638;11.714;2023-09-19T05:53:09;21.70;77.00
78028;DHT22;67235;45.638;11.714;2023-09-19T05:55:38;21.90;77.20
78028;DHT22;67235;45.638;11.714;2023-09-19T05:58:04;22.30;76.60
78028;DHT22;67235;45.638;11.714;2023-09-19T06:00:30;22.70;76.30
78028;DHT22;67235;45.638;11.714;2023-09-19T06:02:59;23.00;75.40
78028;DHT22;67235;45.638;11.714;2023-09-19T06:05:27;23.30;74.80
78028;DHT22;67235;45.638;11.714;2023-09-19T06:07:53;23.40;74.80
78028;DHT22;67235;45.638;11.714;2023-09-19T06:10:19;23.30;75.10
78028;DHT22;67235;45.638;11.714;2023-09-19T06:12:51;23.50;75.00
78028;DHT22;67235;45.638;11.714;2023-09-19T06:15:21;23.50;75.20
78028;DHT22;67235;45.638;11.714;2023-09-19T06:17:55;23.60;75.70
78028;DHT22;67235;45.638;11.714;2023-09-19T06:20:24;23.60;75.70
78028;DHT22;67235;45.638;11.714;2023-09-19T06:22:51;23.70;76.60
78028;DHT22;67235;45.638;11.714;2023-09-19T06:25:19;23.90;76.30
78028;DHT22;67235;45.638;11.714;2023-09-19T06:27:54;24.20;76.00
78028;DHT22;67235;45.638;11.714;2023-09-19T06:30:24;24.40;75.90
78028;DHT22;67235;45.638;11.714;2023-09-19T06:32:59;24.40;75.80
78028;DHT22;67235;45.638;11.714;2023-09-19T06:35:25;24.40;75.90
78028;DHT22;67235;45.638;11.714;2023-09-19T06:37:53;24.40;75.90
78028;DHT22;67235;45.638;11.714;2023-09-19T06:40:19;24.40;76.30
78028;DHT22;67235;45.638;11.714;2023-09-19T06:42:47;24.40;76.50
78028;DHT22;67235;45.638;11.714;2023-09-19T06:45:16;24.80;76.00
78028;DHT22;67235;45.638;11.714;2023-09-19T06:47:49;25.60;74.80
78028;DHT22;67235;45.638;11.714;2023-09-19T06:50:16;25.90;74.40
78028;DHT22;67235;45.638;11.714;2023-09-19T06:52:46;25.90;73.70
78028;DHT22;67235;45.638;11.714;2023-09-19T06:55:19;26.00;74.30
78028;DHT22;67235;45.638;11.714;2023-09-19T06:57:46;26.00;74.70
78028;DHT22;67235;45.638;11.714;2023-09-19T07:00:13;26.00;74.10
78028;DHT22;67235;45.638;11.714;2023-09-19T07:02:59;26.10;74.50
78028;DHT22;67235;45.638;11.714;2023-09-19T07:05:31;26.00;74.20
78028;DHT22;67235;45.638;11.714;2023-09-19T07:07:58;26.30;73.90
78028;DHT22;67235;45.638;11.714;2023-09-19T07:10:25;26.80;73.60
78028;DHT22;67235;45.638;11.714;2023-09-19T07:15:25;27.80;72.50
78028;DHT22;67235;45.638;11.714;2023-09-19T07:17:54;29.30;69.20
78028;DHT22;67235;45.638;11.714;2023-09-19T07:20:22;31.50;61.50
78028;DHT22;67235;45.638;11.714;2023-09-19T07:22:51;33.30;55.30
78028;DHT22;67235;45.638;11.714;2023-09-19T07:25:17;34.50;51.60
78028;DHT22;67235;45.638;11.714;2023-09-19T07:27:43;34.80;49.70
78028;DHT22;67235;45.638;11.714;2023-09-19T07:30:10;35.80;48.60
78028;DHT22;67235;45.638;11.714;2023-09-19T07:32:37;37.40;43.50
78028;DHT22;67235;45.638;11.714;2023-09-19T07:35:04;38.00;41.10
78028;DHT22;67235;45.638;11.714;2023-09-19T07:37:33;38.00;41.40
78028;DHT22;67235;45.638;11.714;2023-09-19T07:40:00;37.90;42.80
78028;DHT22;67235;45.638;11.714;2023-09-19T07:42:36;38.70;40.70
78028;DHT22;67235;45.638;11.714;2023-09-19T07:45:07;38.60;40.90
78028;DHT22;67235;45.638;11.714;2023-09-19T07:47:33;39.10;38.80
78028;DHT22;67235;45.638;11.714;2023-09-19T07:50:00;39.40;38.70
78028;DHT22;67235;45.638;11.714;2023-09-19T07:52:29;39.70;38.20
78028;DHT22;67235;45.638;11.714;2023-09-19T07:54:55;40.00;37.10
78028;DHT22;67235;45.638;11.714;2023-09-19T07:57:23;39.90;37.90
78028;DHT22;67235;45.638;11.714;2023-09-19T07:59:48;39.80;36.80
78028;DHT22;67235;45.638;11.714;2023-09-19T08:02:14;40.70;34.00
78028;DHT22;67235;45.638;11.714;2023-09-19T08:04:44;40.10;35.50
78028;DHT22;67235;45.638;11.714;2023-09-19T08:07:12;40.10;34.80
78028;DHT22;67235;45.638;11.714;2023-09-19T08:09:39;40.40;33.90
78028;DHT22;67235;45.638;11.714;2023-09-19T08:12:06;40.60;33.50
78028;DHT22;67235;45.638;11.714;2023-09-19T08:14:34;39.70;35.80
78028;DHT22;67235;45.638;11.714;2023-09-19T08:17:00;39.30;36.40
78028;DHT22;67235;45.638;11.714;2023-09-19T08:19:26;39.70;36.70
78028;DHT22;67235;45.638;11.714;2023-09-19T08:21:58;39.90;35.50
78028;DHT22;67235;45.638;11.714;2023-09-19T08:24:27;39.90;35.10
78028;DHT22;67235;45.638;11.714;2023-09-19T08:26:55;39.70;36.40
78028;DHT22;67235;45.638;11.714;2023-09-19T08:29:22;39.20;37.70
78028;DHT22;67235;45.638;11.714;2023-09-19T08:31:57;39.70;36.50
78028;DHT22;67235;45.638;11.714;2023-09-19T08:34:26;39.90;35.80
78028;DHT22;67235;45.638;11.714;2023-09-19T08:36:53;40.20;36.00
78028;DHT22;67235;45.638;11.714;2023-09-19T08:39:25;40.70;34.40
78028;DHT22;67235;45.638;11.714;2023-09-19T08:41:58;40.70;34.60
78028;DHT22;67235;45.638;11.714;2023-09-19T08:44:25;39.60;36.10
78028;DHT22;67235;45.638;11.714;2023-09-19T08:46:55;39.60;36.00
78028;DHT22;67235;45.638;11.714;2023-09-19T08:49:53;39.30;37.10
78028;DHT22;67235;45.638;11.714;2023-09-19T08:52:27;39.90;36.20
78028;DHT22;67235;45.638;11.714;2023-09-19T08:54:58;39.90;36.50
78028;DHT22;67235;45.638;11.714;2023-09-19T08:57:25;39.20;35.70
78028;DHT22;67235;45.638;11.714;2023-09-19T08:59:56;39.00;38.90
78028;DHT22;67235;45.638;11.714;2023-09-19T09:02:22;39.90;37.30
78028;DHT22;67235;45.638;11.714;2023-09-19T09:04:49;40.30;35.60
78028;DHT22;67235;45.638;11.714;2023-09-19T09:07:16;40.60;35.10
78028;DHT22;67235;45.638;11.714;2023-09-19T09:09:44;40.70;33.00
78028;DHT22;67235;45.638;11.714;2023-09-19T09:12:15;38.70;36.40
78028;DHT22;67235;45.638;11.714;2023-09-19T09:14:45;38.00;37.50
78028;DHT22;67235;45.638;11.714;2023-09-19T09:17:14;38.50;36.00
78028;DHT22;67235;45.638;11.714;2023-09-19T09:19:40;39.20;35.60
78028;DHT22;67235;45.638;11.714;2023-09-19T09:22:09;39.30;35.60
78028;DHT22;67235;45.638;11.714;2023-09-19T09:24:35;39.40;35.80
78028;DHT22;67235;45.638;11.714;2023-09-19T09:27:07;37.90;37.20
78028;DHT22;67235;45.638;11.714;2023-09-19T09:29:47;37.70;39.20
78028;DHT22;67235;45.638;11.714;2023-09-19T09:32:27;38.10;38.00
78028;DHT22;67235;45.638;11.714;2023-09-19T09:34:56;39.10;36.30
78028;DHT22;67235;45.638;11.714;2023-09-19T09:37:23;39.40;35.40
78028;DHT22;67235;45.638;11.714;2023-09-19T09:39:54;39.20;36.00
78028;DHT22;67235;45.638;11.714;2023-09-19T09:42:35;38.70;35.60
78028;DHT22;67235;45.638;11.714;2023-09-19T09:45:23;38.00;36.70
78028;DHT22;67235;45.638;11.714;2023-09-19T09:47:58;37.60;36.50
78028;DHT22;67235;45.638;11.714;2023-09-19T09:50:33;37.60;38.70
78028;DHT22;67235;45.638;11.714;2023-09-19T09:53:26;38.30;37.50
78028;DHT22;67235;45.638;11.714;2023-09-19T09:56:09;38.50;37.30
78028;DHT22;67235;45.638;11.714;2023-09-19T09:58:37;37.60;36.70
78028;DHT22;67235;45.638;11.714;2023-09-19T10:01:04;36.10;38.20
78028;DHT22;67235;45.638;11.714;2023-09-19T10:03:41;35.70;39.70
78028;DHT22;67235;45.638;11.714;2023-09-19T10:06:16;36.10;40.80
78028;DHT22;67235;45.638;11.714;2023-09-19T10:09:09;36.90;41.20
78028;DHT22;67235;45.638;11.714;2023-09-19T10:12:05;37.50;39.00
78028;DHT22;67235;45.638;11.714;2023-09-19T10:14:37;37.80;36.40
78028;DHT22;67235;45.638;11.714;2023-09-19T10:17:05;38.00;34.80
78028;DHT22;67235;45.638;11.714;2023-09-19T10:19:46;37.60;37.90
78028;DHT22;67235;45.638;11.714;2023-09-19T10:22:14;37.10;38.80
78028;DHT22;67235;45.638;11.714;2023-09-19T10:24:43;37.30;37.30
78028;DHT22;67235;45.638;11.714;2023-09-19T10:27:12;36.70;39.00
78028;DHT22;67235;45.638;11.714;2023-09-19T10:29:39;36.30;40.00
78028;DHT22;67235;45.638;11.714;2023-09-19T10:32:06;36.30;40.10
78028;DHT22;67235;45.638;11.714;2023-09-19T10:34:35;35.70;41.00
78028;DHT22;67235;45.638;11.714;2023-09-19T10:37:02;35.40;39.60
78028;DHT22;67235;45.638;11.714;2023-09-19T10:39:32;35.10;37.80
78028;DHT22;67235;45.638;11.714;2023-09-19T10:42:02;34.10;40.10
78028;DHT22;67235;45.638;11.714;2023-09-19T10:44:32;33.40;44.40
78028;DHT22;67235;45.638;11.714;2023-09-19T10:46:58;33.80;46.00
78028;DHT22;67235;45.638;11.714;2023-09-19T10:49:25;34.50;41.80
78028;DHT22;67235;45.638;11.714;2023-09-19T10:51:57;34.50;43.30
78028;DHT22;67235;45.638;11.714;2023-09-19T10:54:30;33.80;43.90
78028;DHT22;67235;45.638;11.714;2023-09-19T10:56:58;34.30;44.40
78028;DHT22;67235;45.638;11.714;2023-09-19T10:59:25;34.50;42.80
78028;DHT22;67235;45.638;11.714;2023-09-19T11:01:53;34.90;41.30
78028;DHT22;67235;45.638;11.714;2023-09-19T11:15:02;35.50;39.80
78028;DHT22;67235;45.638;11.714;2023-09-19T11:17:35;35.50;40.80
78028;DHT22;67235;45.638;11.714;2023-09-19T11:30:39;34.10;42.60
78028;DHT22;67235;45.638;11.714;2023-09-19T11:33:19;34.20;42.50
78028;DHT22;67235;45.638;11.714;2023-09-19T11:39:01;34.70;41.70
78028;DHT22;67235;45.638;11.714;2023-09-19T11:41:37;35.10;44.20
78028;DHT22;67235;45.638;11.714;2023-09-19T11:49:28;35.20;38.90
78028;DHT22;67235;45.638;11.714;2023-09-19T11:52:00;34.60;40.40
78028;DHT22;67235;45.638;11.714;2023-09-19T11:54:27;34.20;42.50
78028;DHT22;67235;45.638;11.714;2023-09-19T11:56:58;34.50;42.90
78028;DHT22;67235;45.638;11.714;2023-09-19T11:59:28;34.80;42.50
78028;DHT22;67235;45.638;11.714;2023-09-19T12:02:04;35.00;40.40
78028;DHT22;67235;45.638;11.714;2023-09-19T12:04:35;35.20;41.80
78028;DHT22;67235;45.638;11.714;2023-09-19T12:07:17;35.40;42.30
78028;DHT22;67235;45.638;11.714;2023-09-19T12:09:50;35.90;40.00
78028;DHT22;67235;45.638;11.714;2023-09-19T12:12:20;35.90;40.20
78028;DHT22;67235;45.638;11.714;2023-09-19T12:14:50;36.00;39.30
78028;DHT22;67235;45.638;11.714;2023-09-19T12:17:17;36.20;40.50
78028;DHT22;67235;45.638;11.714;2023-09-19T12:19:57;35.90;39.40
78028;DHT22;67235;45.638;11.714;2023-09-19T12:22:38;35.20;39.40
78028;DHT22;67235;45.638;11.714;2023-09-19T12:25:06;34.50;40.90
78028;DHT22;67235;45.638;11.714;2023-09-19T12:27:44;33.70;42.30
78028;DHT22;67235;45.638;11.714;2023-09-19T12:30:13;33.50;44.80
78028;DHT22;67235;45.638;11.714;2023-09-19T12:32:42;33.30;44.40
78028;DHT22;67235;45.638;11.714;2023-09-19T12:35:08;33.20;44.20
78028;DHT22;67235;45.638;11.714;2023-09-19T12:37:43;33.00;45.50
78028;DHT22;67235;45.638;11.714;2023-09-19T12:40:14;32.70;46.60
78028;DHT22;67235;45.638;11.714;2023-09-19T12:42:43;32.90;46.40
78028;DHT22;67235;45.638;11.714;2023-09-19T12:45:10;33.50;46.00
78028;DHT22;67235;45.638;11.714;2023-09-19T12:47:39;34.00;42.80
78028;DHT22;67235;45.638;11.714;2023-09-19T12:50:13;34.10;42.30
78028;DHT22;67235;45.638;11.714;2023-09-19T12:52:45;33.60;44.20
78028;DHT22;67235;45.638;11.714;2023-09-19T12:55:29;33.20;44.50
78028;DHT22;67235;45.638;11.714;2023-09-19T13:00:40;32.30;45.10
78028;DHT22;67235;45.638;11.714;2023-09-19T13:03:15;32.10;47.50
78028;DHT22;67235;45.638;11.714;2023-09-19T13:05:58;31.90;47.00
78028;DHT22;67235;45.638;11.714;2023-09-19T13:08:31;31.70;46.70
78028;DHT22;67235;45.638;11.714;2023-09-19T13:17:05;31.80;48.40
78028;DHT22;67235;45.638;11.714;2023-09-19T13:19:45;31.60;50.40
78028;DHT22;67235;45.638;11.714;2023-09-19T13:22:36;31.50;49.00
78028;DHT22;67235;45.638;11.714;2023-09-19T13:25:08;31.40;50.40
78028;DHT22;67235;45.638;11.714;2023-09-19T13:27:42;31.10;51.10
78028;DHT22;67235;45.638;11.714;2023-09-19T13:30:10;31.00;53.30
78028;DHT22;67235;45.638;11.714;2023-09-19T13:32:36;31.00;53.30
78028;DHT22;67235;45.638;11.714;2023-09-19T13:35:04;30.80;52.50
78028;DHT22;67235;45.638;11.714;2023-09-19T13:37:32;30.80;52.00
78028;DHT22;67235;45.638;11.714;2023-09-19T13:40:10;30.70;52.50
78028;DHT22;67235;45.638;11.714;2023-09-19T13:42:37;30.50;55.20
78028;DHT22;67235;45.638;11.714;2023-09-19T13:45:03;30.30;57.20
78028;DHT22;67235;45.638;11.714;2023-09-19T13:47:33;30.10;57.60
78028;DHT22;67235;45.638;11.714;2023-09-19T13:50:01;29.90;59.80
78028;DHT22;67235;45.638;11.714;2023-09-19T13:52:29;29.80;59.70
78028;DHT22;67235;45.638;11.714;2023-09-19T13:54:56;29.80;59.60
78028;DHT22;67235;45.638;11.714;2023-09-19T13:57:26;29.90;58.70
78028;DHT22;67235;45.638;11.714;2023-09-19T13:59:54;29.90;59.50
78028;DHT22;67235;45.638;11.714;2023-09-19T14:02:21;30.00;60.90
78028;DHT22;67235;45.638;11.714;2023-09-19T14:04:52;30.00;60.90
78028;DHT22;67235;45.638;11.714;2023-09-19T14:07:18;29.90;60.40
78028;DHT22;67235;45.638;11.714;2023-09-19T14:09:46;29.60;57.40
78028;DHT22;67235;45.638;11.714;2023-09-19T14:12:12;29.60;59.50
78028;DHT22;67235;45.638;11.714;2023-09-19T14:14:38;29.80;57.80
78028;DHT22;67235;45.638;11.714;2023-09-19T14:17:04;29.90;52.40
78028;DHT22;67235;45.638;11.714;2023-09-19T14:19:33;30.40;50.50
78028;DHT22;67235;45.638;11.714;2023-09-19T14:21:58;30.50;51.50
78028;DHT22;67235;45.638;11.714;2023-09-19T14:24:25;30.80;50.50
78028;DHT22;67235;45.638;11.714;2023-09-19T14:26:51;31.00;48.80
78028;DHT22;67235;45.638;11.714;2023-09-19T14:29:17;31.20;47.80
78028;DHT22;67235;45.638;11.714;2023-09-19T14:31:45;31.40;46.40
78028;DHT22;67235;45.638;11.714;2023-09-19T14:34:11;31.40;46.60
78028;DHT22;67235;45.638;11.714;2023-09-19T14:36:37;31.20;46.80
78028;DHT22;67235;45.638;11.714;2023-09-19T14:39:06;31.30;47.60
78028;DHT22;67235;45.638;11.714;2023-09-19T14:41:33;31.20;45.10
78028;DHT22;67235;45.638;11.714;2023-09-19T14:44:01;31.20;47.70
78028;DHT22;67235;45.638;11.714;2023-09-19T14:46:27;31.10;45.20
78028;DHT22;67235;45.638;11.714;2023-09-19T14:48:53;31.10;46.40
78028;DHT22;67235;45.638;11.714;2023-09-19T14:51:19;31.10;44.40
78028;DHT22;67235;45.638;11.714;2023-09-19T14:53:46;31.10;45.40
78028;DHT22;67235;45.638;11.714;2023-09-19T14:56:12;31.10;47.20
78028;DHT22;67235;45.638;11.714;2023-09-19T14:58:41;31.20;44.30
78028;DHT22;67235;45.638;11.714;2023-09-19T15:01:12;31.20;43.50
78028;DHT22;67235;45.638;11.714;2023-09-19T15:03:39;31.00;44.60
78028;DHT22;67235;45.638;11.714;2023-09-19T15:06:07;31.00;50.60
78028;DHT22;67235;45.638;11.714;2023-09-19T15:08:35;31.00;46.10
78028;DHT22;67235;45.638;11.714;2023-09-19T15:11:04;31.00;45.60
78028;DHT22;67235;45.638;11.714;2023-09-19T15:13:31;31.00;44.80
78028;DHT22;67235;45.638;11.714;2023-09-19T15:16:05;31.00;47.10
78028;DHT22;67235;45.638;11.714;2023-09-19T15:18:35;31.10;46.10
78028;DHT22;67235;45.638;11.714;2023-09-19T15:21:06;31.00;46.40
78028;DHT22;67235;45.638;11.714;2023-09-19T15:23:33;31.10;45.90
78028;DHT22;67235;45.638;11.714;2023-09-19T15:26:06;31.10;46.70
78028;DHT22;67235;45.638;11.714;2023-09-19T15:28:34;31.10;48.00
78028;DHT22;67235;45.638;11.714;2023-09-19T15:31:10;30.80;47.80
78028;DHT22;67235;45.638;11.714;2023-09-19T15:33:36;30.70;46.60
78028;DHT22;67235;45.638;11.714;2023-09-19T15:36:10;30.60;48.00
78028;DHT22;67235;45.638;11.714;2023-09-19T15:38:59;30.70;47.70
78028;DHT22;67235;45.638;11.714;2023-09-19T15:41:31;30.50;48.40
78028;DHT22;67235;45.638;11.714;2023-09-19T15:43:57;29.90;51.10
78028;DHT22;67235;45.638;11.714;2023-09-19T15:46:30;29.50;51.00
78028;DHT22;67235;45.638;11.714;2023-09-19T15:48:57;29.00;53.40
78028;DHT22;67235;45.638;11.714;2023-09-19T15:51:23;28.50;54.30
78028;DHT22;67235;45.638;11.714;2023-09-19T15:53:52;28.20;54.70
78028;DHT22;67235;45.638;11.714;2023-09-19T15:56:19;27.90;55.20
78028;DHT22;67235;45.638;11.714;2023-09-19T15:58:49;27.60;56.60
78028;DHT22;67235;45.638;11.714;2023-09-19T16:01:16;27.30;57.80
78028;DHT22;67235;45.638;11.714;2023-09-19T16:03:52;27.40;57.50
78028;DHT22;67235;45.638;11.714;2023-09-19T16:06:29;27.20;59.10
78028;DHT22;67235;45.638;11.714;2023-09-19T16:08:58;26.90;60.30
78028;DHT22;67235;45.638;11.714;2023-09-19T16:11:27;26.90;61.80
78028;DHT22;67235;45.638;11.714;2023-09-19T16:13:53;27.00;61.30
78028;DHT22;67235;45.638;11.714;2023-09-19T16:16:20;26.90;61.90
78028;DHT22;67235;45.638;11.714;2023-09-19T16:18:53;26.90;62.90
78028;DHT22;67235;45.638;11.714;2023-09-19T16:21:23;26.80;63.90
78028;DHT22;67235;45.638;11.714;2023-09-19T16:23:50;26.60;65.50
78028;DHT22;67235;45.638;11.714;2023-09-19T16:26:17;26.50;64.90
78028;DHT22;67235;45.638;11.714;2023-09-19T16:28:49;26.60;65.40
78028;DHT22;67235;45.638;11.714;2023-09-19T16:31:15;26.40;65.60